sensor_id;sensor_type;location;lat;lon;timestamp;temperature;humidity
66094;DHT22;52876;49.394;10.892;2022-09-06T00:00:00;18.00;99.90
66094;DHT22;52876;49.394;10.892;2022-09-06T00:02:30;18.00;99.90
66094;DHT22;52876;49.394;10.892;2022-09-06T00:04:58;17.90;99.90
66094;DHT22;52876;49.394;10.892;2022-09-06T00:07:26;18.10;99.90
66094;DHT22;52876;49.394;10.892;2022-09-06T00:12:21;17.80;99.90
66094;DHT22;52876;49.394;10.892;2022-09-06T00:17:17;18.10;99.90
66094;DHT22;52876;49.394;10.892;2022-09-06T00:19:44;18.00;99.90
66094;DHT22;52876;49.394;10.892;2022-09-06T00:24:40;18.00;99.90
66094;DHT22;52876;49.394;10.892;2022-09-06T00:29:38;17.30;99.90
66094;DHT22;52876;49.394;10.892;2022-09-06T00:32:05;17.90;99.90
66094;DHT22;52876;49.394;10.892;2022-09-06T00:37:00;16.00;99.90
66094;DHT22;52876;49.394;10.892;2022-09-06T00:41:56;18.10;99.90
66094;DHT22;52876;49.394;10.892;2022-09-06T00:46:52;18.10;99.90
66094;DHT22;52876;49.394;10.892;2022-09-06T00:49:23;18.10;99.90
66094;DHT22;52876;49.394;10.892;2022-09-06T00:51:53;18.50;99.90
66094;DHT22;52876;49.394;10.892;2022-09-06T00:56:49;18.30;99.90
66094;DHT22;52876;49.394;10.892;2022-09-06T00:59:18;18.20;99.90
66094;DHT22;52876;49.394;10.892;2022-09-06T01:01:45;18.20;99.90
66094;DHT22;52876;49.394;10.892;2022-09-06T01:04:13;18.20;99.90
66094;DHT22;52876;49.394;10.892;2022-09-06T01:06:49;18.10;99.90
66094;DHT22;52876;49.394;10.892;2022-09-06T01:09:28;17.90;99.90
66094;DHT22;52876;49.394;10.892;2022-09-06T01:12:11;17.90;99.90
66094;DHT22;52876;49.394;10.892;2022-09-06T01:14:53;17.80;99.90
66094;DHT22;52876;49.394;10.892;2022-09-06T01:17:31;17.80;99.90
66094;DHT22;52876;49.394;10.892;2022-09-06T01:26:14;17.90;99.90
66094;DHT22;52876;49.394;10.892;2022-09-06T01:28:47;17.90;99.90
66094;DHT22;52876;49.394;10.892;2022-09-06T01:31:22;17.90;99.90
66094;DHT22;52876;49.394;10.892;2022-09-06T01:34:06;17.80;99.90
66094;DHT22;52876;49.394;10.892;2022-09-06T01:36:40;17.80;99.90
66094;DHT22;52876;49.394;10.892;2022-09-06T01:39:14;17.80;99.90
66094;DHT22;52876;49.394;10.892;2022-09-06T01:41:42;17.70;99.90
66094;DHT22;52876;49.394;10.892;2022-09-06T01:44:11;17.60;99.90
66094;DHT22;52876;49.394;10.892;2022-09-06T01:46:43;18.00;99.90
66094;DHT22;52876;49.394;10.892;2022-09-06T01:49:22;17.60;99.90
66094;DHT22;52876;49.394;10.892;2022-09-06T01:52:01;17.50;99.90
66094;DHT22;52876;49.394;10.892;2022-09-06T01:54:49;17.50;99.90
66094;DHT22;52876;49.394;10.892;2022-09-06T01:57:26;17.60;99.90
66094;DHT22;52876;49.394;10.892;2022-09-06T02:00:05;17.40;99.90
66094;DHT22;52876;49.394;10.892;2022-09-06T02:02:50;17.50;99.90
66094;DHT22;52876;49.394;10.892;2022-09-06T02:05:24;17.30;99.90
66094;DHT22;52876;49.394;10.892;2022-09-06T02:07:56;17.20;99.90
66094;DHT22;52876;49.394;10.892;2022-09-06T02:10:27;17.10;99.90
66094;DHT22;52876;49.394;10.892;2022-09-06T02:12:58;17.00;99.90
66094;DHT22;52876;49.394;10.892;2022-09-06T02:15:31;17.10;99.90
66094;DHT22;52876;49.394;10.892;2022-09-06T02:18:03;17.20;99.90
66094;DHT22;52876;49.394;10.892;2022-09-06T02:20:34;17.10;99.90
66094;DHT22;52876;49.394;10.892;2022-09-06T02:23:04;17.20;99.90
66094;DHT22;52876;49.394;10.892;2022-09-06T02:25:35;17.20;99.90
66094;DHT22;52876;49.394;10.892;2022-09-06T02:28:04;17.20;99.90
66094;DHT22;52876;49.394;10.892;2022-09-06T02:30:35;18.10;99.90
66094;DHT22;52876;49.394;10.892;2022-09-06T02:33:06;17.20;99.90
66094;DHT22;52876;49.394;10.892;2022-09-06T02:35:42;17.10;99.90
66094;DHT22;52876;49.394;10.892;2022-09-06T02:38:10;17.20;99.90
66094;DHT22;52876;49.394;10.892;2022-09-06T02:40:38;17.10;99.90
66094;DHT22;52876;49.394;10.892;2022-09-06T02:43:06;15.70;99.90
66094;DHT22;52876;49.394;10.892;2022-09-06T02:45:35;17.10;99.90
66094;DHT22;52876;49.394;10.892;2022-09-06T02:48:02;17.10;99.90
66094;DHT22;52876;49.394;10.892;2022-09-06T02:50:29;17.00;99.90
66094;DHT22;52876;49.394;10.892;2022-09-06T02:53:05;17.10;99.90
66094;DHT22;52876;49.394;10.892;2022-09-06T02:55:32;17.20;99.90
66094;DHT22;52876;49.394;10.892;2022-09-06T03:00:28;17.10;99.90
66094;DHT22;52876;49.394;10.892;2022-09-06T03:02:56;17.10;99.90
66094;DHT22;52876;49.394;10.892;2022-09-06T03:05:24;17.00;99.90
66094;DHT22;52876;49.394;10.892;2022-09-06T03:07:52;15.70;99.90
66094;DHT22;52876;49.394;10.892;2022-09-06T03:10:20;17.10;99.90
66094;DHT22;52876;49.394;10.892;2022-09-06T03:12:48;17.00;99.90
66094;DHT22;52876;49.394;10.892;2022-09-06T03:15:15;16.90;99.90
66094;DHT22;52876;49.394;10.892;2022-09-06T03:20:13;16.80;99.90
66094;DHT22;52876;49.394;10.892;2022-09-06T03:22:40;16.80;99.90
66094;DHT22;52876;49.394;10.892;2022-09-06T03:25:09;16.80;99.90
66094;DHT22;52876;49.394;10.892;2022-09-06T03:30:05;16.70;99.90
66094;DHT22;52876;49.394;10.892;2022-09-06T03:32:33;16.70;99.90
66094;DHT22;52876;49.394;10.892;2022-09-06T03:37:31;16.60;99.90
66094;DHT22;52876;49.394;10.892;2022-09-06T03:39:58;16.60;99.90
66094;DHT22;52876;49.394;10.892;2022-09-06T03:42:26;15.90;99.90
66094;DHT22;52876;49.394;10.892;2022-09-06T03:44:53;16.70;99.90
66094;DHT22;52876;49.394;10.892;2022-09-06T03:52:16;16.40;99.90
66094;DHT22;52876;49.394;10.892;2022-09-06T03:54:44;16.40;99.90
66094;DHT22;52876;49.394;10.892;2022-09-06T03:57:11;16.50;99.90
66094;DHT22;52876;49.394;10.892;2022-09-06T04:04:33;16.60;99.90
66094;DHT22;52876;49.394;10.892;2022-09-06T04:07:01;16.70;99.90
66094;DHT22;52876;49.394;10.892;2022-09-06T04:11:57;16.80;99.90
66094;DHT22;52876;49.394;10.892;2022-09-06T04:14:24;16.60;99.90
66094;DHT22;52876;49.394;10.892;2022-09-06T04:24:15;16.40;99.90
66094;DHT22;52876;49.394;10.892;2022-09-06T04:29:12;16.70;99.90
66094;DHT22;52876;49.394;10.892;2022-09-06T04:36:37;16.40;99.90
66094;DHT22;52876;49.394;10.892;2022-09-06T04:41:32;16.40;99.90
66094;DHT22;52876;49.394;10.892;2022-09-06T04:44:03;16.60;99.90
66094;DHT22;52876;49.394;10.892;2022-09-06T04:46:31;16.70;99.90
66094;DHT22;52876;49.394;10.892;2022-09-06T04:51:26;16.80;99.90
66094;DHT22;52876;49.394;10.892;2022-09-06T04:53:54;16.70;99.90
66094;DHT22;52876;49.394;10.892;2022-09-06T04:56:23;16.40;99.90
66094;DHT22;52876;49.394;10.892;2022-09-06T04:58:52;16.70;99.90
66094;DHT22;52876;49.394;10.892;2022-09-06T05:03:48;16.80;99.90
66094;DHT22;52876;49.394;10.892;2022-09-06T05:06:20;16.80;99.90
66094;DHT22;52876;49.394;10.892;2022-09-06T05:08:48;16.80;99.90
66094;DHT22;52876;49.394;10.892;2022-09-06T05:13:44;18.10;99.90
66094;DHT22;52876;49.394;10.892;2022-09-06T05:21:07;16.30;99.90
66094;DHT22;52876;49.394;10.892;2022-09-06T05:31:05;16.70;99.90
66094;DHT22;52876;49.394;10.892;2022-09-06T05:36:01;16.70;99.90
66094;DHT22;52876;49.394;10.892;2022-09-06T05:38:34;16.80;99.90
66094;DHT22;52876;49.394;10.892;2022-09-06T05:41:02;16.90;99.90
66094;DHT22;52876;49.394;10.892;2022-09-06T05:43:30;17.00;99.90
66094;DHT22;52876;49.394;10.892;2022-09-06T05:48:26;17.20;99.90
66094;DHT22;52876;49.394;10.892;2022-09-06T05:51:00;17.30;99.90
66094;DHT22;52876;49.394;10.892;2022-09-06T05:53:37;17.40;99.90
66094;DHT22;52876;49.394;10.892;2022-09-06T05:56:06;17.50;99.90
66094;DHT22;52876;49.394;10.892;2022-09-06T06:01:14;17.70;99.90
66094;DHT22;52876;49.394;10.892;2022-09-06T06:03:41;18.00;99.90
66094;DHT22;52876;49.394;10.892;2022-09-06T06:08:41;18.10;99.90
66094;DHT22;52876;49.394;10.892;2022-09-06T06:11:08;18.20;99.90
66094;DHT22;52876;49.394;10.892;2022-09-06T06:16:03;18.10;99.90
66094;DHT22;52876;49.394;10.892;2022-09-06T06:21:10;18.10;99.90
66094;DHT22;52876;49.394;10.892;2022-09-06T06:23:39;18.30;99.90
66094;DHT22;52876;49.394;10.892;2022-09-06T06:26:08;18.40;99.90
66094;DHT22;52876;49.394;10.892;2022-09-06T06:31:06;18.70;99.90
66094;DHT22;52876;49.394;10.892;2022-09-06T06:33:34;18.80;99.90
66094;DHT22;52876;49.394;10.892;2022-09-06T06:36:04;18.80;99.90
66094;DHT22;52876;49.394;10.892;2022-09-06T06:38:33;18.80;99.90
66094;DHT22;52876;49.394;10.892;2022-09-06T06:41:02;19.00;99.90
66094;DHT22;52876;49.394;10.892;2022-09-06T06:43:34;18.90;99.90
66094;DHT22;52876;49.394;10.892;2022-09-06T06:46:04;18.90;99.90
66094;DHT22;52876;49.394;10.892;2022-09-06T06:48:33;19.30;99.90
66094;DHT22;52876;49.394;10.892;2022-09-06T06:51:01;19.60;99.90
66094;DHT22;52876;49.394;10.892;2022-09-06T06:58:29;20.40;99.90
66094;DHT22;52876;49.394;10.892;2022-09-06T07:00:58;17.00;99.90
66094;DHT22;52876;49.394;10.892;2022-09-06T07:05:54;20.30;99.90
66094;DHT22;52876;49.394;10.892;2022-09-06T07:08:21;20.50;99.90
66094;DHT22;52876;49.394;10.892;2022-09-06T07:10:49;20.80;99.90
66094;DHT22;52876;49.394;10.892;2022-09-06T07:13:18;21.00;99.90
66094;DHT22;52876;49.394;10.892;2022-09-06T07:15:46;20.90;99.90
66094;DHT22;52876;49.394;10.892;2022-09-06T07:18:16;21.10;99.90
66094;DHT22;52876;49.394;10.892;2022-09-06T07:25:38;20.70;99.90
66094;DHT22;52876;49.394;10.892;2022-09-06T07:28:05;20.60;99.90
66094;DHT22;52876;49.394;10.892;2022-09-06T07:30:34;20.70;99.90
66094;DHT22;52876;49.394;10.892;2022-09-06T07:33:02;21.00;99.90
66094;DHT22;52876;49.394;10.892;2022-09-06T07:35:37;21.40;99.90
66094;DHT22;52876;49.394;10.892;2022-09-06T07:38:04;22.60;99.90
66094;DHT22;52876;49.394;10.892;2022-09-06T07:40:32;22.20;99.90
66094;DHT22;52876;49.394;10.892;2022-09-06T07:42:59;18.70;99.90
66094;DHT22;52876;49.394;10.892;2022-09-06T07:45:26;23.00;99.90
66094;DHT22;52876;49.394;10.892;2022-09-06T07:47:54;23.30;99.90
66094;DHT22;52876;49.394;10.892;2022-09-06T07:50:21;23.40;99.90
66094;DHT22;52876;49.394;10.892;2022-09-06T07:52:49;23.70;99.90
66094;DHT22;52876;49.394;10.892;2022-09-06T07:55:17;23.70;99.90
66094;DHT22;52876;49.394;10.892;2022-09-06T07:57:45;23.70;99.90
66094;DHT22;52876;49.394;10.892;2022-09-06T08:00:12;23.80;99.90
66094;DHT22;52876;49.394;10.892;2022-09-06T08:02:40;23.90;99.90
66094;DHT22;52876;49.394;10.892;2022-09-06T08:05:08;23.90;99.90
66094;DHT22;52876;49.394;10.892;2022-09-06T08:07:35;24.00;99.90
66094;DHT22;52876;49.394;10.892;2022-09-06T08:10:06;24.10;99.90
66094;DHT22;52876;49.394;10.892;2022-09-06T08:12:46;24.10;99.90
66094;DHT22;52876;49.394;10.892;2022-09-06T08:15:14;24.20;99.90
66094;DHT22;52876;49.394;10.892;2022-09-06T08:17:42;24.70;99.90
66094;DHT22;52876;49.394;10.892;2022-09-06T08:22:37;24.60;99.90
66094;DHT22;52876;49.394;10.892;2022-09-06T08:25:07;24.50;99.90
66094;DHT22;52876;49.394;10.892;2022-09-06T08:27:35;24.50;99.90
66094;DHT22;52876;49.394;10.892;2022-09-06T08:30:05;24.70;99.90
66094;DHT22;52876;49.394;10.892;2022-09-06T08:32:37;24.50;99.90
66094;DHT22;52876;49.394;10.892;2022-09-06T08:35:05;24.10;99.90
66094;DHT22;52876;49.394;10.892;2022-09-06T08:37:32;24.40;99.90
66094;DHT22;52876;49.394;10.892;2022-09-06T08:40:00;24.50;99.90
66094;DHT22;52876;49.394;10.892;2022-09-06T08:42:38;24.50;99.90
66094;DHT22;52876;49.394;10.892;2022-09-06T08:45:07;25.30;99.90
66094;DHT22;52876;49.394;10.892;2022-09-06T08:47:38;26.40;99.90
66094;DHT22;52876;49.394;10.892;2022-09-06T08:50:07;27.20;99.90
66094;DHT22;52876;49.394;10.892;2022-09-06T08:52:42;28.20;99.90
66094;DHT22;52876;49.394;10.892;2022-09-06T08:55:31;27.10;99.90
66094;DHT22;52876;49.394;10.892;2022-09-06T08:58:22;26.30;99.90
66094;DHT22;52876;49.394;10.892;2022-09-06T09:00:54;26.10;99.90
66094;DHT22;52876;49.394;10.892;2022-09-06T09:03:42;26.30;99.90
66094;DHT22;52876;49.394;10.892;2022-09-06T09:06:11;26.70;99.90
66094;DHT22;52876;49.394;10.892;2022-09-06T09:08:44;27.00;99.90
66094;DHT22;52876;49.394;10.892;2022-09-06T09:11:15;27.00;99.90
66094;DHT22;52876;49.394;10.892;2022-09-06T09:13:50;26.50;99.90
66094;DHT22;52876;49.394;10.892;2022-09-06T09:16:21;26.50;99.90
66094;DHT22;52876;49.394;10.892;2022-09-06T09:18:51;26.80;99.90
66094;DHT22;52876;49.394;10.892;2022-09-06T09:21:20;26.70;99.90
66094;DHT22;52876;49.394;10.892;2022-09-06T09:23:51;26.70;99.90
66094;DHT22;52876;49.394;10.892;2022-09-06T09:26:21;27.50;99.90
66094;DHT22;52876;49.394;10.892;2022-09-06T09:29:08;26.50;99.90
66094;DHT22;52876;49.394;10.892;2022-09-06T09:31:38;26.50;99.90
66094;DHT22;52876;49.394;10.892;2022-09-06T09:34:10;27.30;99.90
66094;DHT22;52876;49.394;10.892;2022-09-06T09:36:39;26.90;99.90
66094;DHT22;52876;49.394;10.892;2022-09-06T09:39:11;26.90;99.90
66094;DHT22;52876;49.394;10.892;2022-09-06T09:41:41;22.50;99.90
66094;DHT22;52876;49.394;10.892;2022-09-06T09:44:16;24.30;99.90
66094;DHT22;52876;49.394;10.892;2022-09-06T09:46:43;23.40;99.90
66094;DHT22;52876;49.394;10.892;2022-09-06T09:49:13;27.60;99.90
66094;DHT22;52876;49.394;10.892;2022-09-06T09:51:43;27.50;99.90
66094;DHT22;52876;49.394;10.892;2022-09-06T09:54:12;26.00;99.90
66094;DHT22;52876;49.394;10.892;2022-09-06T09:56:43;29.30;99.90
66094;DHT22;52876;49.394;10.892;2022-09-06T09:59:19;29.30;99.90
66094;DHT22;52876;49.394;10.892;2022-09-06T10:01:47;32.10;99.90
66094;DHT22;52876;49.394;10.892;2022-09-06T10:04:27;30.40;99.90
66094;DHT22;52876;49.394;10.892;2022-09-06T10:07:07;30.40;99.90
66094;DHT22;52876;49.394;10.892;2022-09-06T10:09:39;30.20;99.90
66094;DHT22;52876;49.394;10.892;2022-09-06T10:14:42;28.80;99.90
66094;DHT22;52876;49.394;10.892;2022-09-06T10:17:21;28.40;99.90
66094;DHT22;52876;49.394;10.892;2022-09-06T10:19:55;28.20;99.90
66094;DHT22;52876;49.394;10.892;2022-09-06T10:22:34;28.40;99.90
66094;DHT22;52876;49.394;10.892;2022-09-06T10:25:36;29.60;99.90
66094;DHT22;52876;49.394;10.892;2022-09-06T10:28:22;29.30;99.90
66094;DHT22;52876;49.394;10.892;2022-09-06T10:31:09;29.20;99.90
66094;DHT22;52876;49.394;10.892;2022-09-06T10:33:49;28.20;99.90
66094;DHT22;52876;49.394;10.892;2022-09-06T10:36:19;28.10;99.90
66094;DHT22;52876;49.394;10.892;2022-09-06T10:38:56;28.00;99.90
66094;DHT22;52876;49.394;10.892;2022-09-06T10:41:31;28.00;99.90
66094;DHT22;52876;49.394;10.892;2022-09-06T10:44:22;27.70;99.90
66094;DHT22;52876;49.394;10.892;2022-09-06T10:46:58;27.40;99.90
66094;DHT22;52876;49.394;10.892;2022-09-06T10:49:36;27.80;99.90
66094;DHT22;52876;49.394;10.892;2022-09-06T10:52:05;28.10;99.90
66094;DHT22;52876;49.394;10.892;2022-09-06T10:54:38;28.20;99.90
66094;DHT22;52876;49.394;10.892;2022-09-06T10:57:09;28.50;99.90
66094;DHT22;52876;49.394;10.892;2022-09-06T10:59:40;28.80;99.90
66094;DHT22;52876;49.394;10.892;2022-09-06T11:02:19;28.90;99.90
66094;DHT22;52876;49.394;10.892;2022-09-06T11:07:25;28.60;99.90
66094;DHT22;52876;49.394;10.892;2022-09-06T11:09:56;29.10;99.90
66094;DHT22;52876;49.394;10.892;2022-09-06T11:12:33;30.00;99.50
66094;DHT22;52876;49.394;10.892;2022-09-06T11:15:03;30.70;97.30
66094;DHT22;52876;49.394;10.892;2022-09-06T11:17:41;30.60;96.50
66094;DHT22;52876;49.394;10.892;2022-09-06T11:20:13;30.10;97.00
66094;DHT22;52876;49.394;10.892;2022-09-06T11:23:00;29.60;98.00
66094;DHT22;52876;49.394;10.892;2022-09-06T11:26:09;29.50;98.90
66094;DHT22;52876;49.394;10.892;2022-09-06T11:28:44;29.40;99.30
66094;DHT22;52876;49.394;10.892;2022-09-06T11:31:17;29.70;99.10
66094;DHT22;52876;49.394;10.892;2022-09-06T11:34:01;30.10;96.80
66094;DHT22;52876;49.394;10.892;2022-09-06T11:39:02;30.70;96.40
66094;DHT22;52876;49.394;10.892;2022-09-06T11:41:33;31.00;97.20
66094;DHT22;52876;49.394;10.892;2022-09-06T11:44:05;32.10;96.10
66094;DHT22;52876;49.394;10.892;2022-09-06T11:46:58;30.10;96.50
66094;DHT22;52876;49.394;10.892;2022-09-06T11:49:32;29.40;98.10
66094;DHT22;52876;49.394;10.892;2022-09-06T11:54:36;29.60;97.50
66094;DHT22;52876;49.394;10.892;2022-09-06T11:57:11;29.80;97.20
66094;DHT22;52876;49.394;10.892;2022-09-06T11:59:52;29.80;96.80
66094;DHT22;52876;49.394;10.892;2022-09-06T12:02:39;29.60;98.10
66094;DHT22;52876;49.394;10.892;2022-09-06T12:05:10;29.60;96.80
66094;DHT22;52876;49.394;10.892;2022-09-06T12:08:13;29.40;98.30
66094;DHT22;52876;49.394;10.892;2022-09-06T12:10:55;29.20;98.40
66094;DHT22;52876;49.394;10.892;2022-09-06T12:13:34;28.70;98.00
66094;DHT22;52876;49.394;10.892;2022-09-06T12:16:02;29.20;98.90
66094;DHT22;52876;49.394;10.892;2022-09-06T12:18:55;29.90;96.90
66094;DHT22;52876;49.394;10.892;2022-09-06T12:21:43;30.20;96.80
66094;DHT22;52876;49.394;10.892;2022-09-06T12:24:54;30.20;97.00
66094;DHT22;52876;49.394;10.892;2022-09-06T12:27:22;30.80;94.50
66094;DHT22;52876;49.394;10.892;2022-09-06T12:29:53;31.80;94.20
66094;DHT22;52876;49.394;10.892;2022-09-06T12:32:25;31.90;93.30
66094;DHT22;52876;49.394;10.892;2022-09-06T12:34:55;31.90;92.20
66094;DHT22;52876;49.394;10.892;2022-09-06T12:37:33;32.70;94.30
66094;DHT22;52876;49.394;10.892;2022-09-06T12:40:05;30.80;95.20
66094;DHT22;52876;49.394;10.892;2022-09-06T12:42:34;30.50;94.40
66094;DHT22;52876;49.394;10.892;2022-09-06T12:45:05;30.20;93.60
66094;DHT22;52876;49.394;10.892;2022-09-06T12:47:34;30.30;93.50
66094;DHT22;52876;49.394;10.892;2022-09-06T12:50:12;29.70;94.40
66094;DHT22;52876;49.394;10.892;2022-09-06T12:52:46;28.20;95.60
66094;DHT22;52876;49.394;10.892;2022-09-06T12:55:16;27.60;97.20
66094;DHT22;52876;49.394;10.892;2022-09-06T12:57:50;27.60;97.90
66094;DHT22;52876;49.394;10.892;2022-09-06T13:00:17;27.90;98.00
66094;DHT22;52876;49.394;10.892;2022-09-06T13:02:52;28.70;97.80
66094;DHT22;52876;49.394;10.892;2022-09-06T13:05:20;29.20;96.70
66094;DHT22;52876;49.394;10.892;2022-09-06T13:07:50;28.90;95.10
66094;DHT22;52876;49.394;10.892;2022-09-06T13:10:22;29.20;96.20
66094;DHT22;52876;49.394;10.892;2022-09-06T13:12:50;29.10;95.70
66094;DHT22;52876;49.394;10.892;2022-09-06T13:15:21;29.30;96.80
66094;DHT22;52876;49.394;10.892;2022-09-06T13:17:49;33.20;97.40
66094;DHT22;52876;49.394;10.892;2022-09-06T13:20:23;27.40;95.10
66094;DHT22;52876;49.394;10.892;2022-09-06T13:22:50;30.50;94.80
66094;DHT22;52876;49.394;10.892;2022-09-06T13:25:24;30.80;92.80
66094;DHT22;52876;49.394;10.892;2022-09-06T13:27:51;31.10;93.00
66094;DHT22;52876;49.394;10.892;2022-09-06T13:30:35;31.30;93.60
66094;DHT22;52876;49.394;10.892;2022-09-06T13:33:04;31.10;91.60
66094;DHT22;52876;49.394;10.892;2022-09-06T13:35:34;31.50;91.40
66094;DHT22;52876;49.394;10.892;2022-09-06T13:38:21;32.00;92.80
66094;DHT22;52876;49.394;10.892;2022-09-06T13:40:55;32.20;90.90
66094;DHT22;52876;49.394;10.892;2022-09-06T13:43:22;31.30;90.60
66094;DHT22;52876;49.394;10.892;2022-09-06T13:46:02;31.40;91.10
66094;DHT22;52876;49.394;10.892;2022-09-06T13:48:28;31.90;90.90
66094;DHT22;52876;49.394;10.892;2022-09-06T13:50:55;31.90;87.90
66094;DHT22;52876;49.394;10.892;2022-09-06T13:53:21;33.00;84.80
66094;DHT22;52876;49.394;10.892;2022-09-06T13:55:47;33.00;84.80
66094;DHT22;52876;49.394;10.892;2022-09-06T13:58:14;27.60;85.20
66094;DHT22;52876;49.394;10.892;2022-09-06T14:00:41;31.90;88.50
66094;DHT22;52876;49.394;10.892;2022-09-06T14:03:10;31.30;88.10
66094;DHT22;52876;49.394;10.892;2022-09-06T14:05:39;30.90;89.60
66094;DHT22;52876;49.394;10.892;2022-09-06T14:10:31;31.00;89.70
66094;DHT22;52876;49.394;10.892;2022-09-06T14:12:57;31.10;88.30
66094;DHT22;52876;49.394;10.892;2022-09-06T14:15:26;32.10;80.00
66094;DHT22;52876;49.394;10.892;2022-09-06T14:17:51;34.00;77.60
66094;DHT22;52876;49.394;10.892;2022-09-06T14:20:19;34.40;76.90
66094;DHT22;52876;49.394;10.892;2022-09-06T14:27:42;31.60;84.00
66094;DHT22;52876;49.394;10.892;2022-09-06T14:30:09;31.60;83.00
66094;DHT22;52876;49.394;10.892;2022-09-06T14:32:38;27.10;79.20
66094;DHT22;52876;49.394;10.892;2022-09-06T14:35:04;33.70;86.40
66094;DHT22;52876;49.394;10.892;2022-09-06T14:37:32;31.30;87.10
66094;DHT22;52876;49.394;10.892;2022-09-06T14:39:58;31.90;81.30
66094;DHT22;52876;49.394;10.892;2022-09-06T14:42:25;32.00;83.80
66094;DHT22;52876;49.394;10.892;2022-09-06T14:44:52;31.80;81.30
66094;DHT22;52876;49.394;10.892;2022-09-06T14:47:19;31.60;80.70
66094;DHT22;52876;49.394;10.892;2022-09-06T14:49:46;31.50;81.80
66094;DHT22;52876;49.394;10.892;2022-09-06T14:52:12;31.60;81.00
66094;DHT22;52876;49.394;10.892;2022-09-06T14:54:38;31.90;81.40
66094;DHT22;52876;49.394;10.892;2022-09-06T14:57:04;31.80;80.30
66094;DHT22;52876;49.394;10.892;2022-09-06T14:59:31;32.00;78.20
66094;DHT22;52876;49.394;10.892;2022-09-06T15:01:57;32.20;76.90
66094;DHT22;52876;49.394;10.892;2022-09-06T15:04:23;32.50;78.80
66094;DHT22;52876;49.394;10.892;2022-09-06T15:06:50;32.60;78.70
66094;DHT22;52876;49.394;10.892;2022-09-06T15:11:45;31.40;79.70
66094;DHT22;52876;49.394;10.892;2022-09-06T15:14:13;30.20;80.20
66094;DHT22;52876;49.394;10.892;2022-09-06T15:16:40;30.50;81.30
66094;DHT22;52876;49.394;10.892;2022-09-06T15:19:06;25.70;77.50
66094;DHT22;52876;49.394;10.892;2022-09-06T15:21:34;31.10;81.60
66094;DHT22;52876;49.394;10.892;2022-09-06T15:24:01;30.60;80.80
66094;DHT22;52876;49.394;10.892;2022-09-06T15:26:29;30.30;83.80
66094;DHT22;52876;49.394;10.892;2022-09-06T15:33:49;29.20;84.30
66094;DHT22;52876;49.394;10.892;2022-09-06T15:36:15;29.00;85.70
66094;DHT22;52876;49.394;10.892;2022-09-06T15:38:43;29.10;85.30
66094;DHT22;52876;49.394;10.892;2022-09-06T15:41:13;29.20;85.10
66094;DHT22;52876;49.394;10.892;2022-09-06T15:43:41;29.30;87.60
66094;DHT22;52876;49.394;10.892;2022-09-06T15:46:09;29.20;84.50
66094;DHT22;52876;49.394;10.892;2022-09-06T15:48:39;29.50;84.60
66094;DHT22;52876;49.394;10.892;2022-09-06T15:51:08;29.80;82.80
66094;DHT22;52876;49.394;10.892;2022-09-06T15:53:34;29.80;85.40
66094;DHT22;52876;49.394;10.892;2022-09-06T15:56:02;29.50;83.00
66094;DHT22;52876;49.394;10.892;2022-09-06T15:58:30;29.10;84.90
66094;DHT22;52876;49.394;10.892;2022-09-06T16:01:05;28.70;84.50
66094;DHT22;52876;49.394;10.892;2022-09-06T16:03:34;28.30;85.90
66094;DHT22;52876;49.394;10.892;2022-09-06T16:06:03;28.30;84.70
66094;DHT22;52876;49.394;10.892;2022-09-06T16:08:29;28.30;83.50
66094;DHT22;52876;49.394;10.892;2022-09-06T16:10:57;28.20;84.80
66094;DHT22;52876;49.394;10.892;2022-09-06T16:15:59;28.10;84.80
66094;DHT22;52876;49.394;10.892;2022-09-06T16:21:03;28.60;85.40
66094;DHT22;52876;49.394;10.892;2022-09-06T16:33:17;27.80;86.60
66094;DHT22;52876;49.394;10.892;2022-09-06T16:38:10;27.80;81.00
66094;DHT22;52876;49.394;10.892;2022-09-06T16:43:03;27.90;79.40
66094;DHT22;52876;49.394;10.892;2022-09-06T16:50:24;28.20;82.40
66094;DHT22;52876;49.394;10.892;2022-09-06T16:52:50;27.90;82.40
66094;DHT22;52876;49.394;10.892;2022-09-06T17:00:12;27.70;80.10
66094;DHT22;52876;49.394;10.892;2022-09-06T17:02:44;27.50;79.70
66094;DHT22;52876;49.394;10.892;2022-09-06T17:05:10;27.50;77.50
66094;DHT22;52876;49.394;10.892;2022-09-06T17:07:39;27.60;77.30
66094;DHT22;52876;49.394;10.892;2022-09-06T17:10:06;27.50;79.00
66094;DHT22;52876;49.394;10.892;2022-09-06T17:17:27;27.10;78.40
66094;DHT22;52876;49.394;10.892;2022-09-06T17:22:20;26.90;79.40
66094;DHT22;52876;49.394;10.892;2022-09-06T17:24:47;26.80;78.30
66094;DHT22;52876;49.394;10.892;2022-09-06T17:27:13;26.70;82.90
66094;DHT22;52876;49.394;10.892;2022-09-06T17:29:39;26.70;82.00
66094;DHT22;52876;49.394;10.892;2022-09-06T17:32:05;23.80;79.50
66094;DHT22;52876;49.394;10.892;2022-09-06T17:34:31;26.60;83.20
66094;DHT22;52876;49.394;10.892;2022-09-06T17:36:58;26.50;83.30
66094;DHT22;52876;49.394;10.892;2022-09-06T17:39:24;26.30;85.00
66094;DHT22;52876;49.394;10.892;2022-09-06T17:41:52;22.80;80.40
66094;DHT22;52876;49.394;10.892;2022-09-06T17:44:19;26.00;83.10
66094;DHT22;52876;49.394;10.892;2022-09-06T17:46:46;25.90;82.80
66094;DHT22;52876;49.394;10.892;2022-09-06T17:49:13;25.70;81.80
66094;DHT22;52876;49.394;10.892;2022-09-06T17:59:03;25.20;83.90
66094;DHT22;52876;49.394;10.892;2022-09-06T18:01:31;25.10;84.60
66094;DHT22;52876;49.394;10.892;2022-09-06T18:03:58;25.00;83.90
66094;DHT22;52876;49.394;10.892;2022-09-06T18:06:27;24.90;84.00
66094;DHT22;52876;49.394;10.892;2022-09-06T18:08:55;25.00;84.40
66094;DHT22;52876;49.394;10.892;2022-09-06T18:11:24;24.80;85.50
66094;DHT22;52876;49.394;10.892;2022-09-06T18:13:54;24.80;88.00
66094;DHT22;52876;49.394;10.892;2022-09-06T18:16:22;24.80;90.10
66094;DHT22;52876;49.394;10.892;2022-09-06T18:18:49;24.40;92.20
66094;DHT22;52876;49.394;10.892;2022-09-06T18:21:17;24.20;93.30
66094;DHT22;52876;49.394;10.892;2022-09-06T18:23:43;24.00;93.60
66094;DHT22;52876;49.394;10.892;2022-09-06T18:26:10;29.40;95.90
66094;DHT22;52876;49.394;10.892;2022-09-06T18:31:05;24.90;94.40
66094;DHT22;52876;49.394;10.892;2022-09-06T18:33:33;23.60;93.90
66094;DHT22;52876;49.394;10.892;2022-09-06T18:40:56;23.30;94.30
66094;DHT22;52876;49.394;10.892;2022-09-06T18:43:23;23.10;94.50
66094;DHT22;52876;49.394;10.892;2022-09-06T18:50:47;23.10;94.90
66094;DHT22;52876;49.394;10.892;2022-09-06T18:53:13;23.10;94.80
66094;DHT22;52876;49.394;10.892;2022-09-06T18:55:40;23.10;94.90